sensor_id;sensor_type;location;lat;lon;timestamp;P1;durP1;ratioP1;P2;durP2;ratioP2
58468;SDS011;44257;44.804;10.220;2023-04-03T00:02:08;2.67;;;1.50;;
58468;SDS011;44257;44.804;10.220;2023-04-03T00:04:33;3.05;;;1.35;;
58468;SDS011;44257;44.804;10.220;2023-04-03T00:06:59;2.25;;;1.20;;
58468;SDS011;44257;44.804;10.220;2023-04-03T00:09:25;3.65;;;1.45;;
58468;SDS011;44257;44.804;10.220;2023-04-03T00:11:51;2.58;;;1.15;;
58468;SDS011;44257;44.804;10.220;2023-04-03T00:14:17;3.25;;;1.58;;
58468;SDS011;44257;44.804;10.220;2023-04-03T00:16:43;3.15;;;1.15;;
58468;SDS011;44257;44.804;10.220;2023-04-03T00:19:08;2.85;;;1.48;;
58468;SDS011;44257;44.804;10.220;2023-04-03T00:21:36;2.50;;;1.17;;
58468;SDS011;44257;44.804;10.220;2023-04-03T00:24:02;2.40;;;1.25;;
58468;SDS011;44257;44.804;10.220;2023-04-03T00:26:29;3.17;;;1.80;;
58468;SDS011;44257;44.804;10.220;2023-04-03T00:28:54;4.18;;;1.55;;
58468;SDS011;44257;44.804;10.220;2023-04-03T00:31:21;2.90;;;1.30;;
58468;SDS011;44257;44.804;10.220;2023-04-03T00:33:47;3.22;;;1.67;;
58468;SDS011;44257;44.804;10.220;2023-04-03T00:36:13;2.17;;;1.13;;
58468;SDS011;44257;44.804;10.220;2023-04-03T00:38:39;3.85;;;1.98;;
58468;SDS011;44257;44.804;10.220;2023-04-03T00:41:05;5.15;;;1.55;;
58468;SDS011;44257;44.804;10.220;2023-04-03T00:43:32;2.75;;;1.73;;
58468;SDS011;44257;44.804;10.220;2023-04-03T00:45:58;3.47;;;1.60;;
58468;SDS011;44257;44.804;10.220;2023-04-03T00:50:52;3.75;;;1.83;;
58468;SDS011;44257;44.804;10.220;2023-04-03T00:53:24;3.10;;;1.67;;
58468;SDS011;44257;44.804;10.220;2023-04-03T00:55:55;2.60;;;1.50;;
58468;SDS011;44257;44.804;10.220;2023-04-03T00:58:22;4.75;;;1.52;;
58468;SDS011;44257;44.804;10.220;2023-04-03T01:00:58;4.38;;;1.75;;
58468;SDS011;44257;44.804;10.220;2023-04-03T01:03:25;3.53;;;1.95;;
58468;SDS011;44257;44.804;10.220;2023-04-03T01:05:52;2.80;;;1.42;;
58468;SDS011;44257;44.804;10.220;2023-04-03T01:08:18;3.53;;;1.95;;
58468;SDS011;44257;44.804;10.220;2023-04-03T01:10:44;3.80;;;1.60;;
58468;SDS011;44257;44.804;10.220;2023-04-03T01:13:21;3.90;;;1.65;;
58468;SDS011;44257;44.804;10.220;2023-04-03T01:15:50;3.88;;;1.65;;
58468;SDS011;44257;44.804;10.220;2023-04-03T01:18:16;3.20;;;1.67;;
58468;SDS011;44257;44.804;10.220;2023-04-03T01:23:26;3.08;;;1.40;;
58468;SDS011;44257;44.804;10.220;2023-04-03T01:26:01;4.68;;;1.85;;
58468;SDS011;44257;44.804;10.220;2023-04-03T01:28:29;3.17;;;1.60;;
58468;SDS011;44257;44.804;10.220;2023-04-03T01:33:26;3.08;;;1.67;;
58468;SDS011;44257;44.804;10.220;2023-04-03T01:35:52;2.80;;;1.20;;
58468;SDS011;44257;44.804;10.220;2023-04-03T01:38:18;2.45;;;1.20;;
58468;SDS011;44257;44.804;10.220;2023-04-03T01:40:44;2.97;;;1.40;;
58468;SDS011;44257;44.804;10.220;2023-04-03T01:43:10;2.97;;;1.45;;
58468;SDS011;44257;44.804;10.220;2023-04-03T01:45:36;3.47;;;1.35;;
58468;SDS011;44257;44.804;10.220;2023-04-03T01:48:02;2.72;;;1.35;;
58468;SDS011;44257;44.804;10.220;2023-04-03T01:50:28;2.30;;;1.08;;
58468;SDS011;44257;44.804;10.220;2023-04-03T01:52:54;3.10;;;1.42;;
58468;SDS011;44257;44.804;10.220;2023-04-03T01:55:20;2.72;;;1.27;;
58468;SDS011;44257;44.804;10.220;2023-04-03T01:57:46;6.60;;;1.63;;
58468;SDS011;44257;44.804;10.220;2023-04-03T02:00:13;3.33;;;1.58;;
58468;SDS011;44257;44.804;10.220;2023-04-03T02:02:40;3.35;;;1.63;;
58468;SDS011;44257;44.804;10.220;2023-04-03T02:05:06;2.63;;;1.30;;
58468;SDS011;44257;44.804;10.220;2023-04-03T02:07:32;2.33;;;1.30;;
58468;SDS011;44257;44.804;10.220;2023-04-03T02:09:58;3.92;;;1.42;;
58468;SDS011;44257;44.804;10.220;2023-04-03T02:12:24;3.60;;;1.35;;
58468;SDS011;44257;44.804;10.220;2023-04-03T02:14:51;3.95;;;2.10;;
58468;SDS011;44257;44.804;10.220;2023-04-03T02:17:17;5.38;;;1.67;;
58468;SDS011;44257;44.804;10.220;2023-04-03T02:19:43;4.05;;;1.73;;
58468;SDS011;44257;44.804;10.220;2023-04-03T02:22:09;1.92;;;1.17;;
58468;SDS011;44257;44.804;10.220;2023-04-03T02:24:35;3.42;;;1.50;;
58468;SDS011;44257;44.804;10.220;2023-04-03T02:27:01;3.03;;;1.52;;
58468;SDS011;44257;44.804;10.220;2023-04-03T02:29:27;3.00;;;1.10;;
58468;SDS011;44257;44.804;10.220;2023-04-03T02:31:54;3.85;;;2.17;;
58468;SDS011;44257;44.804;10.220;2023-04-03T02:34:22;3.58;;;1.25;;
58468;SDS011;44257;44.804;10.220;2023-04-03T02:36:48;3.50;;;1.67;;
58468;SDS011;44257;44.804;10.220;2023-04-03T02:39:15;2.33;;;1.25;;
58468;SDS011;44257;44.804;10.220;2023-04-03T02:41:41;2.45;;;1.33;;
58468;SDS011;44257;44.804;10.220;2023-04-03T02:44:12;3.28;;;1.42;;
58468;SDS011;44257;44.804;10.220;2023-04-03T02:46:39;3.35;;;1.30;;
58468;SDS011;44257;44.804;10.220;2023-04-03T02:49:04;2.75;;;1.27;;
58468;SDS011;44257;44.804;10.220;2023-04-03T02:51:31;2.03;;;1.30;;
58468;SDS011;44257;44.804;10.220;2023-04-03T02:53:57;2.45;;;1.58;;
58468;SDS011;44257;44.804;10.220;2023-04-03T02:56:27;2.65;;;1.48;;
58468;SDS011;44257;44.804;10.220;2023-04-03T02:58:53;4.03;;;1.70;;
58468;SDS011;44257;44.804;10.220;2023-04-03T03:01:19;2.83;;;1.48;;
58468;SDS011;44257;44.804;10.220;2023-04-03T03:03:45;3.67;;;1.35;;
58468;SDS011;44257;44.804;10.220;2023-04-03T03:06:12;3.95;;;1.40;;
58468;SDS011;44257;44.804;10.220;2023-04-03T03:08:40;2.63;;;1.05;;
58468;SDS011;44257;44.804;10.220;2023-04-03T03:11:07;2.70;;;1.38;;
58468;SDS011;44257;44.804;10.220;2023-04-03T03:13:33;3.10;;;1.20;;
58468;SDS011;44257;44.804;10.220;2023-04-03T03:15:59;5.45;;;2.10;;
58468;SDS011;44257;44.804;10.220;2023-04-03T03:18:26;3.97;;;1.48;;
58468;SDS011;44257;44.804;10.220;2023-04-03T03:20:53;3.35;;;1.75;;
58468;SDS011;44257;44.804;10.220;2023-04-03T03:23:21;2.67;;;1.10;;
58468;SDS011;44257;44.804;10.220;2023-04-03T03:25:48;2.67;;;1.27;;
58468;SDS011;44257;44.804;10.220;2023-04-03T03:28:14;2.58;;;1.10;;
58468;SDS011;44257;44.804;10.220;2023-04-03T03:30:40;1.58;;;0.93;;
58468;SDS011;44257;44.804;10.220;2023-04-03T03:33:06;2.70;;;1.30;;
58468;SDS011;44257;44.804;10.220;2023-04-03T03:35:33;4.38;;;1.55;;
58468;SDS011;44257;44.804;10.220;2023-04-03T03:38:00;2.00;;;1.00;;
58468;SDS011;44257;44.804;10.220;2023-04-03T03:40:25;3.80;;;2.10;;
58468;SDS011;44257;44.804;10.220;2023-04-03T03:42:51;3.80;;;1.85;;
58468;SDS011;44257;44.804;10.220;2023-04-03T03:45:17;2.83;;;1.50;;
58468;SDS011;44257;44.804;10.220;2023-04-03T03:47:43;3.70;;;1.63;;
58468;SDS011;44257;44.804;10.220;2023-04-03T03:50:10;2.30;;;1.10;;
58468;SDS011;44257;44.804;10.220;2023-04-03T03:52:36;3.67;;;1.52;;
58468;SDS011;44257;44.804;10.220;2023-04-03T03:55:02;2.95;;;1.50;;
58468;SDS011;44257;44.804;10.220;2023-04-03T03:57:28;2.33;;;1.33;;
58468;SDS011;44257;44.804;10.220;2023-04-03T03:59:54;5.28;;;1.67;;
58468;SDS011;44257;44.804;10.220;2023-04-03T04:02:20;6.82;;;2.05;;
58468;SDS011;44257;44.804;10.220;2023-04-03T04:04:46;1.92;;;1.27;;
58468;SDS011;44257;44.804;10.220;2023-04-03T04:07:13;2.67;;;1.30;;
58468;SDS011;44257;44.804;10.220;2023-04-03T04:09:39;2.80;;;1.58;;
58468;SDS011;44257;44.804;10.220;2023-04-03T04:12:07;2.53;;;1.20;;
58468;SDS011;44257;44.804;10.220;2023-04-03T04:14:34;2.20;;;1.20;;
58468;SDS011;44257;44.804;10.220;2023-04-03T04:17:00;3.72;;;1.83;;
58468;SDS011;44257;44.804;10.220;2023-04-03T04:19:27;2.75;;;1.45;;
58468;SDS011;44257;44.804;10.220;2023-04-03T04:21:53;2.63;;;1.63;;
58468;SDS011;44257;44.804;10.220;2023-04-03T04:24:19;2.80;;;1.85;;
58468;SDS011;44257;44.804;10.220;2023-04-03T04:26:49;2.67;;;1.00;;
58468;SDS011;44257;44.804;10.220;2023-04-03T04:29:16;4.38;;;1.88;;
58468;SDS011;44257;44.804;10.220;2023-04-03T04:31:44;4.00;;;1.77;;
58468;SDS011;44257;44.804;10.220;2023-04-03T04:34:10;4.50;;;1.75;;
58468;SDS011;44257;44.804;10.220;2023-04-03T04:36:38;3.45;;;1.50;;
58468;SDS011;44257;44.804;10.220;2023-04-03T04:39:05;5.50;;;1.75;;
58468;SDS011;44257;44.804;10.220;2023-04-03T04:41:31;3.63;;;1.38;;
58468;SDS011;44257;44.804;10.220;2023-04-03T04:43:58;3.33;;;1.80;;
58468;SDS011;44257;44.804;10.220;2023-04-03T04:46:24;2.67;;;1.45;;
58468;SDS011;44257;44.804;10.220;2023-04-03T04:48:54;2.83;;;1.58;;
58468;SDS011;44257;44.804;10.220;2023-04-03T04:51:22;1.80;;;1.20;;
58468;SDS011;44257;44.804;10.220;2023-04-03T04:53:47;5.13;;;2.13;;
58468;SDS011;44257;44.804;10.220;2023-04-03T04:56:16;3.20;;;1.50;;
58468;SDS011;44257;44.804;10.220;2023-04-03T04:58:42;2.67;;;1.30;;
58468;SDS011;44257;44.804;10.220;2023-04-03T05:01:09;3.28;;;1.13;;
58468;SDS011;44257;44.804;10.220;2023-04-03T05:03:42;2.88;;;1.50;;
58468;SDS011;44257;44.804;10.220;2023-04-03T05:06:08;4.45;;;1.58;;
58468;SDS011;44257;44.804;10.220;2023-04-03T05:08:35;2.47;;;1.33;;
58468;SDS011;44257;44.804;10.220;2023-04-03T05:11:02;4.40;;;1.55;;
58468;SDS011;44257;44.804;10.220;2023-04-03T05:13:29;4.10;;;1.55;;
58468;SDS011;44257;44.804;10.220;2023-04-03T05:15:56;3.50;;;1.48;;
58468;SDS011;44257;44.804;10.220;2023-04-03T05:18:22;3.67;;;1.35;;
58468;SDS011;44257;44.804;10.220;2023-04-03T05:20:49;4.30;;;1.60;;
58468;SDS011;44257;44.804;10.220;2023-04-03T05:23:19;4.47;;;1.95;;
58468;SDS011;44257;44.804;10.220;2023-04-03T05:25:46;6.07;;;1.70;;
58468;SDS011;44257;44.804;10.220;2023-04-03T05:28:13;2.70;;;1.42;;
58468;SDS011;44257;44.804;10.220;2023-04-03T05:30:39;4.82;;;2.05;;
58468;SDS011;44257;44.804;10.220;2023-04-03T05:33:07;3.47;;;1.75;;
58468;SDS011;44257;44.804;10.220;2023-04-03T05:35:45;3.50;;;2.05;;
58468;SDS011;44257;44.804;10.220;2023-04-03T05:38:16;7.75;;;1.80;;
58468;SDS011;44257;44.804;10.220;2023-04-03T05:40:42;3.72;;;1.77;;
58468;SDS011;44257;44.804;10.220;2023-04-03T05:43:08;2.63;;;1.30;;
58468;SDS011;44257;44.804;10.220;2023-04-03T05:45:37;4.78;;;1.52;;
58468;SDS011;44257;44.804;10.220;2023-04-03T05:48:03;2.60;;;1.70;;
58468;SDS011;44257;44.804;10.220;2023-04-03T05:50:30;4.57;;;2.00;;
58468;SDS011;44257;44.804;10.220;2023-04-03T05:52:56;3.38;;;1.65;;
58468;SDS011;44257;44.804;10.220;2023-04-03T05:55:26;4.00;;;1.70;;
58468;SDS011;44257;44.804;10.220;2023-04-03T05:57:52;3.70;;;1.35;;
58468;SDS011;44257;44.804;10.220;2023-04-03T06:00:19;3.58;;;1.77;;
58468;SDS011;44257;44.804;10.220;2023-04-03T06:02:54;5.75;;;2.67;;
58468;SDS011;44257;44.804;10.220;2023-04-03T06:05:22;4.63;;;2.17;;
58468;SDS011;44257;44.804;10.220;2023-04-03T06:07:49;3.58;;;1.70;;
58468;SDS011;44257;44.804;10.220;2023-04-03T06:10:15;6.10;;;1.48;;
58468;SDS011;44257;44.804;10.220;2023-04-03T06:12:43;3.20;;;1.73;;
58468;SDS011;44257;44.804;10.220;2023-04-03T06:15:09;3.88;;;2.00;;
58468;SDS011;44257;44.804;10.220;2023-04-03T06:17:36;2.80;;;1.45;;
58468;SDS011;44257;44.804;10.220;2023-04-03T06:20:03;6.20;;;1.70;;
58468;SDS011;44257;44.804;10.220;2023-04-03T06:22:29;3.97;;;2.33;;
58468;SDS011;44257;44.804;10.220;2023-04-03T06:24:55;13.95;;;3.20;;
58468;SDS011;44257;44.804;10.220;2023-04-03T06:27:22;7.03;;;2.03;;
58468;SDS011;44257;44.804;10.220;2023-04-03T06:29:48;4.18;;;2.17;;
58468;SDS011;44257;44.804;10.220;2023-04-03T06:32:14;6.88;;;2.53;;
58468;SDS011;44257;44.804;10.220;2023-04-03T06:34:41;4.68;;;2.45;;
58468;SDS011;44257;44.804;10.220;2023-04-03T06:37:27;4.28;;;2.40;;
58468;SDS011;44257;44.804;10.220;2023-04-03T06:39:56;4.18;;;2.10;;
58468;SDS011;44257;44.804;10.220;2023-04-03T06:42:22;4.07;;;2.45;;
58468;SDS011;44257;44.804;10.220;2023-04-03T06:44:57;5.50;;;2.42;;
58468;SDS011;44257;44.804;10.220;2023-04-03T06:47:23;5.15;;;2.40;;
58468;SDS011;44257;44.804;10.220;2023-04-03T06:49:49;6.13;;;2.95;;
58468;SDS011;44257;44.804;10.220;2023-04-03T06:52:15;5.00;;;2.45;;
58468;SDS011;44257;44.804;10.220;2023-04-03T06:54:41;8.02;;;2.42;;
58468;SDS011;44257;44.804;10.220;2023-04-03T06:57:07;4.75;;;2.65;;
58468;SDS011;44257;44.804;10.220;2023-04-03T06:59:34;4.53;;;2.30;;
58468;SDS011;44257;44.804;10.220;2023-04-03T07:02:00;5.85;;;3.05;;
58468;SDS011;44257;44.804;10.220;2023-04-03T07:04:26;6.32;;;2.75;;
58468;SDS011;44257;44.804;10.220;2023-04-03T07:06:53;5.88;;;3.05;;
58468;SDS011;44257;44.804;10.220;2023-04-03T07:09:19;6.18;;;3.08;;
58468;SDS011;44257;44.804;10.220;2023-04-03T07:11:46;8.18;;;3.30;;
58468;SDS011;44257;44.804;10.220;2023-04-03T07:14:11;7.10;;;3.63;;
58468;SDS011;44257;44.804;10.220;2023-04-03T07:16:37;6.38;;;3.70;;
58468;SDS011;44257;44.804;10.220;2023-04-03T07:19:03;5.50;;;3.40;;
58468;SDS011;44257;44.804;10.220;2023-04-03T07:21:29;6.38;;;3.40;;
58468;SDS011;44257;44.804;10.220;2023-04-03T07:23:55;7.13;;;3.88;;
58468;SDS011;44257;44.804;10.220;2023-04-03T07:26:21;8.57;;;3.60;;
58468;SDS011;44257;44.804;10.220;2023-04-03T07:28:48;8.05;;;3.83;;
58468;SDS011;44257;44.804;10.220;2023-04-03T07:31:15;6.07;;;4.40;;
58468;SDS011;44257;44.804;10.220;2023-04-03T07:33:42;8.30;;;4.13;;
58468;SDS011;44257;44.804;10.220;2023-04-03T07:36:09;6.00;;;3.75;;
58468;SDS011;44257;44.804;10.220;2023-04-03T07:38:35;7.03;;;4.75;;
58468;SDS011;44257;44.804;10.220;2023-04-03T07:41:02;11.70;;;4.43;;
58468;SDS011;44257;44.804;10.220;2023-04-03T07:43:28;6.65;;;4.18;;
58468;SDS011;44257;44.804;10.220;2023-04-03T07:45:54;7.00;;;4.53;;
58468;SDS011;44257;44.804;10.220;2023-04-03T07:48:24;7.40;;;4.40;;
58468;SDS011;44257;44.804;10.220;2023-04-03T07:50:51;8.60;;;4.13;;
58468;SDS011;44257;44.804;10.220;2023-04-03T07:53:17;7.80;;;4.60;;
58468;SDS011;44257;44.804;10.220;2023-04-03T07:55:46;7.93;;;4.65;;
58468;SDS011;44257;44.804;10.220;2023-04-03T07:58:14;8.35;;;4.78;;
58468;SDS011;44257;44.804;10.220;2023-04-03T08:00:41;7.25;;;3.97;;
58468;SDS011;44257;44.804;10.220;2023-04-03T08:03:08;6.63;;;3.72;;
58468;SDS011;44257;44.804;10.220;2023-04-03T08:05:43;6.90;;;4.10;;
58468;SDS011;44257;44.804;10.220;2023-04-03T08:08:11;7.68;;;4.97;;
58468;SDS011;44257;44.804;10.220;2023-04-03T08:10:38;10.02;;;4.15;;
58468;SDS011;44257;44.804;10.220;2023-04-03T08:13:05;7.22;;;4.40;;
58468;SDS011;44257;44.804;10.220;2023-04-03T08:15:31;6.85;;;4.32;;
58468;SDS011;44257;44.804;10.220;2023-04-03T08:17:57;7.93;;;4.63;;
58468;SDS011;44257;44.804;10.220;2023-04-03T08:20:23;8.82;;;5.22;;
58468;SDS011;44257;44.804;10.220;2023-04-03T08:22:50;7.40;;;4.00;;
58468;SDS011;44257;44.804;10.220;2023-04-03T08:25:15;9.18;;;4.95;;
58468;SDS011;44257;44.804;10.220;2023-04-03T08:27:42;9.73;;;5.47;;
58468;SDS011;44257;44.804;10.220;2023-04-03T08:30:08;8.93;;;5.20;;
58468;SDS011;44257;44.804;10.220;2023-04-03T08:32:36;8.40;;;5.05;;
58468;SDS011;44257;44.804;10.220;2023-04-03T08:35:02;8.23;;;6.03;;
58468;SDS011;44257;44.804;10.220;2023-04-03T08:37:29;6.93;;;4.43;;
58468;SDS011;44257;44.804;10.220;2023-04-03T08:39:55;7.80;;;5.25;;
58468;SDS011;44257;44.804;10.220;2023-04-03T08:45:59;8.32;;;4.20;;
58468;SDS011;44257;44.804;10.220;2023-04-03T08:50:47;8.98;;;5.20;;
58468;SDS011;44257;44.804;10.220;2023-04-03T08:53:18;7.95;;;5.03;;
58468;SDS011;44257;44.804;10.220;2023-04-03T08:55:50;8.68;;;4.78;;
58468;SDS011;44257;44.804;10.220;2023-04-03T08:58:22;7.82;;;4.70;;
58468;SDS011;44257;44.804;10.220;2023-04-03T09:01:04;7.88;;;4.93;;
58468;SDS011;44257;44.804;10.220;2023-04-03T09:03:36;10.35;;;5.03;;
58468;SDS011;44257;44.804;10.220;2023-04-03T09:06:12;8.80;;;5.03;;
58468;SDS011;44257;44.804;10.220;2023-04-03T09:08:53;9.60;;;4.78;;
58468;SDS011;44257;44.804;10.220;2023-04-03T09:22:42;7.45;;;4.20;;
58468;SDS011;44257;44.804;10.220;2023-04-03T09:25:13;6.88;;;4.05;;
58468;SDS011;44257;44.804;10.220;2023-04-03T09:27:43;8.20;;;4.28;;
58468;SDS011;44257;44.804;10.220;2023-04-03T09:30:14;5.68;;;3.78;;
58468;SDS011;44257;44.804;10.220;2023-04-03T09:32:41;7.47;;;4.03;;
58468;SDS011;44257;44.804;10.220;2023-04-03T09:38:32;6.05;;;3.80;;
58468;SDS011;44257;44.804;10.220;2023-04-03T09:40:42;5.95;;;3.10;;
58468;SDS011;44257;44.804;10.220;2023-04-03T09:45:43;5.15;;;3.00;;
58468;SDS011;44257;44.804;10.220;2023-04-03T09:56:04;4.13;;;2.83;;
58468;SDS011;44257;44.804;10.220;2023-04-03T09:58:51;3.97;;;2.03;;
58468;SDS011;44257;44.804;10.220;2023-04-03T10:01:33;4.50;;;2.65;;
58468;SDS011;44257;44.804;10.220;2023-04-03T10:06:31;5.35;;;3.10;;
58468;SDS011;44257;44.804;10.220;2023-04-03T10:09:15;6.22;;;3.05;;
58468;SDS011;44257;44.804;10.220;2023-04-03T10:11:57;6.03;;;2.88;;
58468;SDS011;44257;44.804;10.220;2023-04-03T10:14:41;5.10;;;2.72;;
58468;SDS011;44257;44.804;10.220;2023-04-03T10:20:48;3.83;;;2.30;;
58468;SDS011;44257;44.804;10.220;2023-04-03T10:23:41;4.55;;;1.85;;
58468;SDS011;44257;44.804;10.220;2023-04-03T10:26:15;4.97;;;2.15;;
58468;SDS011;44257;44.804;10.220;2023-04-03T10:34:24;3.80;;;2.47;;
58468;SDS011;44257;44.804;10.220;2023-04-03T10:37:05;5.18;;;3.00;;
58468;SDS011;44257;44.804;10.220;2023-04-03T10:39:57;5.57;;;2.28;;
58468;SDS011;44257;44.804;10.220;2023-04-03T10:50:31;4.45;;;2.38;;
58468;SDS011;44257;44.804;10.220;2023-04-03T10:58:48;4.28;;;2.42;;
58468;SDS011;44257;44.804;10.220;2023-04-03T11:01:20;3.65;;;2.30;;
58468;SDS011;44257;44.804;10.220;2023-04-03T11:04:00;5.43;;;2.20;;
58468;SDS011;44257;44.804;10.220;2023-04-03T11:06:33;5.10;;;2.22;;
58468;SDS011;44257;44.804;10.220;2023-04-03T11:09:05;3.65;;;2.13;;
58468;SDS011;44257;44.804;10.220;2023-04-03T11:11:42;4.38;;;2.40;;
58468;SDS011;44257;44.804;10.220;2023-04-03T11:14:11;3.70;;;2.47;;
58468;SDS011;44257;44.804;10.220;2023-04-03T11:16:50;5.57;;;2.63;;
58468;SDS011;44257;44.804;10.220;2023-04-03T11:19:35;4.45;;;2.63;;
58468;SDS011;44257;44.804;10.220;2023-04-03T11:22:16;4.47;;;2.90;;
58468;SDS011;44257;44.804;10.220;2023-04-03T11:24:59;3.88;;;2.45;;
58468;SDS011;44257;44.804;10.220;2023-04-03T11:27:30;3.78;;;2.47;;
58468;SDS011;44257;44.804;10.220;2023-04-03T11:30:05;3.55;;;2.42;;
58468;SDS011;44257;44.804;10.220;2023-04-03T11:35:13;4.30;;;3.00;;
58468;SDS011;44257;44.804;10.220;2023-04-03T11:37:41;3.78;;;2.45;;
58468;SDS011;44257;44.804;10.220;2023-04-03T11:42:54;3.00;;;1.80;;
58468;SDS011;44257;44.804;10.220;2023-04-03T11:50:45;3.88;;;1.70;;
58468;SDS011;44257;44.804;10.220;2023-04-03T11:55:42;3.47;;;1.70;;
58468;SDS011;44257;44.804;10.220;2023-04-03T12:16:29;1.80;;;0.93;;
58468;SDS011;44257;44.804;10.220;2023-04-03T12:29:13;1.05;;;0.60;;
58468;SDS011;44257;44.804;10.220;2023-04-03T12:42:58;0.82;;;0.50;;
58468;SDS011;44257;44.804;10.220;2023-04-03T12:45:38;2.15;;;1.08;;
58468;SDS011;44257;44.804;10.220;2023-04-03T12:48:22;2.20;;;1.17;;
58468;SDS011;44257;44.804;10.220;2023-04-03T12:50:51;1.37;;;0.70;;
58468;SDS011;44257;44.804;10.220;2023-04-03T12:55:46;2.55;;;1.20;;
58468;SDS011;44257;44.804;10.220;2023-04-03T12:58:15;2.72;;;1.13;;
58468;SDS011;44257;44.804;10.220;2023-04-03T13:01:02;1.55;;;0.68;;
58468;SDS011;44257;44.804;10.220;2023-04-03T13:03:29;1.88;;;0.95;;
58468;SDS011;44257;44.804;10.220;2023-04-03T13:05:59;2.38;;;0.90;;
58468;SDS011;44257;44.804;10.220;2023-04-03T13:08:28;1.90;;;0.90;;
58468;SDS011;44257;44.804;10.220;2023-04-03T13:11:11;1.58;;;0.68;;
58468;SDS011;44257;44.804;10.220;2023-04-03T13:13:37;1.38;;;0.70;;
58468;SDS011;44257;44.804;10.220;2023-04-03T13:16:08;1.95;;;0.93;;
58468;SDS011;44257;44.804;10.220;2023-04-03T13:18:37;1.70;;;0.70;;
58468;SDS011;44257;44.804;10.220;2023-04-03T13:21:13;1.77;;;0.80;;
58468;SDS011;44257;44.804;10.220;2023-04-03T13:23:44;2.13;;;0.88;;
58468;SDS011;44257;44.804;10.220;2023-04-03T13:26:15;1.70;;;0.77;;
58468;SDS011;44257;44.804;10.220;2023-04-03T13:28:42;2.78;;;0.70;;
58468;SDS011;44257;44.804;10.220;2023-04-03T13:33:39;1.38;;;0.85;;
58468;SDS011;44257;44.804;10.220;2023-04-03T13:36:33;1.75;;;0.75;;
58468;SDS011;44257;44.804;10.220;2023-04-03T13:39:20;1.55;;;1.05;;
58468;SDS011;44257;44.804;10.220;2023-04-03T13:41:52;1.27;;;0.75;;
58468;SDS011;44257;44.804;10.220;2023-04-03T13:49:21;4.75;;;1.50;;
58468;SDS011;44257;44.804;10.220;2023-04-03T13:54:45;3.72;;;1.60;;
58468;SDS011;44257;44.804;10.220;2023-04-03T13:57:17;2.17;;;1.50;;
58468;SDS011;44257;44.804;10.220;2023-04-03T13:59:43;3.85;;;2.22;;
58468;SDS011;44257;44.804;10.220;2023-04-03T14:04:55;3.47;;;2.33;;
58468;SDS011;44257;44.804;10.220;2023-04-03T14:07:26;3.95;;;2.45;;
58468;SDS011;44257;44.804;10.220;2023-04-03T14:09:52;3.70;;;1.88;;
58468;SDS011;44257;44.804;10.220;2023-04-03T14:12:26;3.38;;;1.80;;
58468;SDS011;44257;44.804;10.220;2023-04-03T14:14:56;3.83;;;1.98;;
58468;SDS011;44257;44.804;10.220;2023-04-03T14:17:25;4.70;;;2.10;;
58468;SDS011;44257;44.804;10.220;2023-04-03T14:19:52;5.15;;;2.17;;
58468;SDS011;44257;44.804;10.220;2023-04-03T14:22:21;2.72;;;1.55;;
58468;SDS011;44257;44.804;10.220;2023-04-03T14:24:57;3.17;;;1.67;;
58468;SDS011;44257;44.804;10.220;2023-04-03T14:27:25;2.88;;;1.70;;
58468;SDS011;44257;44.804;10.220;2023-04-03T14:29:54;3.15;;;1.80;;
58468;SDS011;44257;44.804;10.220;2023-04-03T14:32:21;2.10;;;1.13;;
58468;SDS011;44257;44.804;10.220;2023-04-03T14:34:49;3.00;;;1.50;;
58468;SDS011;44257;44.804;10.220;2023-04-03T14:37:17;4.00;;;1.20;;
58468;SDS011;44257;44.804;10.220;2023-04-03T14:39:45;3.38;;;1.67;;
58468;SDS011;44257;44.804;10.220;2023-04-03T14:42:13;2.38;;;1.38;;
58468;SDS011;44257;44.804;10.220;2023-04-03T14:44:41;2.58;;;1.40;;
58468;SDS011;44257;44.804;10.220;2023-04-03T14:47:09;1.88;;;1.00;;
58468;SDS011;44257;44.804;10.220;2023-04-03T14:49:39;2.05;;;1.10;;
58468;SDS011;44257;44.804;10.220;2023-04-03T14:52:06;2.58;;;1.40;;
58468;SDS011;44257;44.804;10.220;2023-04-03T14:54:40;3.22;;;1.35;;
58468;SDS011;44257;44.804;10.220;2023-04-03T14:57:08;2.67;;;1.13;;
58468;SDS011;44257;44.804;10.220;2023-04-03T14:59:37;3.72;;;1.30;;
58468;SDS011;44257;44.804;10.220;2023-04-03T15:02:09;2.55;;;1.38;;
58468;SDS011;44257;44.804;10.220;2023-04-03T15:04:42;2.40;;;1.17;;
58468;SDS011;44257;44.804;10.220;2023-04-03T15:07:08;2.50;;;1.25;;
58468;SDS011;44257;44.804;10.220;2023-04-03T15:09:34;5.28;;;1.27;;
58468;SDS011;44257;44.804;10.220;2023-04-03T15:12:02;4.60;;;1.30;;
58468;SDS011;44257;44.804;10.220;2023-04-03T15:14:28;3.05;;;1.33;;
58468;SDS011;44257;44.804;10.220;2023-04-03T15:16:53;3.25;;;1.20;;
58468;SDS011;44257;44.804;10.220;2023-04-03T15:19:23;2.95;;;1.40;;
58468;SDS011;44257;44.804;10.220;2023-04-03T15:21:48;3.22;;;1.00;;
58468;SDS011;44257;44.804;10.220;2023-04-03T15:24:14;2.30;;;0.95;;
58468;SDS011;44257;44.804;10.220;2023-04-03T15:26:40;1.20;;;0.65;;
58468;SDS011;44257;44.804;10.220;2023-04-03T15:29:06;2.10;;;1.02;;
58468;SDS011;44257;44.804;10.220;2023-04-03T15:31:32;1.67;;;0.73;;
58468;SDS011;44257;44.804;10.220;2023-04-03T15:33:58;2.50;;;1.15;;
58468;SDS011;44257;44.804;10.220;2023-04-03T15:36:25;3.60;;;1.40;;
58468;SDS011;44257;44.804;10.220;2023-04-03T15:38:51;1.98;;;0.80;;
58468;SDS011;44257;44.804;10.220;2023-04-03T15:41:16;2.80;;;0.57;;
58468;SDS011;44257;44.804;10.220;2023-04-03T15:43:42;3.95;;;0.82;;
58468;SDS011;44257;44.804;10.220;2023-04-03T15:46:08;1.20;;;0.50;;
58468;SDS011;44257;44.804;10.220;2023-04-03T15:48:34;1.52;;;0.70;;
58468;SDS011;44257;44.804;10.220;2023-04-03T15:51:01;2.95;;;0.60;;
58468;SDS011;44257;44.804;10.220;2023-04-03T15:53:27;4.25;;;1.10;;
58468;SDS011;44257;44.804;10.220;2023-04-03T15:55:53;2.50;;;0.70;;
58468;SDS011;44257;44.804;10.220;2023-04-03T15:58:19;2.60;;;0.50;;
58468;SDS011;44257;44.804;10.220;2023-04-03T16:00:44;1.65;;;0.68;;
58468;SDS011;44257;44.804;10.220;2023-04-03T16:03:18;2.10;;;0.60;;
58468;SDS011;44257;44.804;10.220;2023-04-03T16:05:45;3.20;;;0.57;;
58468;SDS011;44257;44.804;10.220;2023-04-03T16:08:11;1.50;;;0.80;;
58468;SDS011;44257;44.804;10.220;2023-04-03T16:10:37;1.15;;;0.60;;
58468;SDS011;44257;44.804;10.220;2023-04-03T16:13:04;0.70;;;0.50;;
58468;SDS011;44257;44.804;10.220;2023-04-03T16:15:31;1.30;;;0.50;;
58468;SDS011;44257;44.804;10.220;2023-04-03T16:17:59;0.98;;;0.50;;
58468;SDS011;44257;44.804;10.220;2023-04-03T16:20:26;1.05;;;0.32;;
58468;SDS011;44257;44.804;10.220;2023-04-03T16:22:53;1.55;;;0.60;;
58468;SDS011;44257;44.804;10.220;2023-04-03T16:25:21;0.57;;;0.47;;
58468;SDS011;44257;44.804;10.220;2023-04-03T16:27:47;1.70;;;0.45;;
58468;SDS011;44257;44.804;10.220;2023-04-03T16:30:13;1.25;;;0.65;;
58468;SDS011;44257;44.804;10.220;2023-04-03T16:32:39;2.92;;;0.73;;
58468;SDS011;44257;44.804;10.220;2023-04-03T16:35:06;1.13;;;0.50;;
58468;SDS011;44257;44.804;10.220;2023-04-03T16:37:32;1.33;;;0.60;;
58468;SDS011;44257;44.804;10.220;2023-04-03T16:39:59;0.55;;;0.40;;
58468;SDS011;44257;44.804;10.220;2023-04-03T16:42:25;1.05;;;0.70;;
58468;SDS011;44257;44.804;10.220;2023-04-03T16:44:51;1.02;;;0.38;;
58468;SDS011;44257;44.804;10.220;2023-04-03T16:47:16;7.57;;;0.60;;
58468;SDS011;44257;44.804;10.220;2023-04-03T16:49:44;1.75;;;0.60;;
58468;SDS011;44257;44.804;10.220;2023-04-03T16:52:11;1.10;;;0.50;;
58468;SDS011;44257;44.804;10.220;2023-04-03T16:54:37;1.17;;;0.52;;